993  
NZUS99 KBOU 131226  
SYNBOU  
 
HOT-AIR BALLOON FORECAST FOR COLORADO  
NATIONAL WEATHER SERVICE DENVER/BOULDER, COLORADO  
0625 MDT TUESDAY, APRIL 13, 2021  
 
* * * * * NORTHEAST COLORADO * * * * *  
 
METAR KFNL 131156Z 09007KT 10SM OVC050 M01/M09 A3025 RMK AO2 SLP255  
T10111089 10033 21011 53004 FZRANO  
METAR KFNL 131056Z 06008KT 10SM OVC055 M01/M09 A3024 RMK AO2 SLP249  
T10061089 FZRANO  
METAR KFNL 130956Z 07007KT 10SM OVC065 01/M10 A3025 RMK AO2 SLP249  
T00061100 FZRANO  
 
METAR KGXY 131156Z 05006KT 10SM BKN050 A3027 RMK AO2 SLPNO 51009 FZRANO  
$  
METAR KGXY 131056Z 06008KT 10SM CLR A3026 RMK AO2 SLPNO FZRANO $  
METAR KGXY 130956Z 07008KT 10SM OVC065 A3026 RMK AO2 SLPNO FZRANO $  
 
METAR KLMO 131215Z AUTO 12005KT 10SM BKN035 OVC042 01/M07 A3027 RMK AO2  
T00071075  
METAR KLMO 131155Z AUTO 09006KT 10SM SCT027 BKN039 OVC046 01/M08 A3026  
RMK AO2 T00111081  
METAR KLMO 131135Z AUTO 00000KT 7SM SCT027 BKN038 OVC045 01/M08 A3026  
RMK AO2 T00111085  
 
METAR KBDU 131215Z AUTO 05005KT 2SM -SN OVC009 M01/M03 A3024 RMK AO2  
METAR KBDU 131155Z AUTO 35003KT 3SM -SN SCT012 SCT017 OVC025 M01/M03  
A3023 RMK AO2  
METAR KBDU 131135Z AUTO 00000KT 3SM -SN BKN025 OVC033 00/M04 A3023 RMK  
AO2  
 
METAR KEIK 131215Z AUTO 36004KT 4SM -SN SCT009 SCT023 M01/M03 A3024 RMK  
AO2 T10151031  
METAR KEIK 131155Z AUTO 01003KT 1 1/2SM -SN BKN009 BKN013 OVC024 M01/M03  
A3024 RMK AO2 T10111034 10035 21011  
METAR KEIK 131135Z AUTO 12006KT 10SM -SN BKN020 BKN025 OVC032 00/M05  
A3024 RMK AO2 T10011048  
 
KBJC 131219Z 1312/1412 06005KT 6SM -SN SCT007 OVC020  
TEMPO 1312/1315 2SM -SN BR OVC005  
FM131600 36007KT P6SM SCT030 OVC045  
FM132000 34011KT P6SM OVC050  
FM140100 32011KT 3SM -SN BR SCT008 OVC020  
TEMPO 1402/1406 1SM -SN BR OVC008  
METAR KBJC 131215Z AUTO 35006KT 5SM -SN OVC007 M01/M02 A3023 RMK AO2  
METAR KBJC 131155Z AUTO 02004KT 7SM -SN BKN007 BKN012 BKN016 M01/M02  
A3022 RMK AO2  
METAR KBJC 131147Z 03003KT 1SM -SN OVC004 M02/M03 A3022  
 
KDEN 131218Z 1312/1418 05012KT P6SM VCSH OVC060  
FM131700 13008KT P6SM SCT030 OVC050  
FM132100 34011KT P6SM OVC050  
FM140200 32011KT 4SM -SN BR SCT008 OVC020  
TEMPO 1403/1407 1 1/2SM -SN BR OVC008  
FM141000 VRB05KT P6SM VCSH BKN008 OVC020  
FM141500 10007KT P6SM SCT008 BKN020  
METAR KDEN 131153Z 05012KT 10SM OVC060 M01/M09 A3021 RMK AO2 SLP231  
T10061094 10028 21006 53000  
METAR KDEN 131053Z 06009KT 10SM OVC060 00/M11 A3020 RMK AO2 SLP226  
T00001111  
METAR KDEN 130953Z 08007KT 10SM OVC055 01/M09 A3020 RMK AO2 SLP225  
T00061089  
 
KBKF 130900Z 1309/1415 VRB06KT 9999 OVC050 510013 QNH3004INS  
BECMG 1405/1406 VRB06KT 9000 -RASN SCT010 510013 QNH3016INS  
BECMG 1409/1410 VRB06KT 9999 NSW SCT015 510013 QNH3014INS  
BECMG 1411/1412 VRB06KT 9999 SCT025 QNH3012INS TX09/1400Z  
TNM01/1314Z  
METAR KBKF 131158Z 06007KT 10SM OVC050 M00/M10 A3020 RMK AO2A SLP230  
T10041104 10019 21004 53002  
METAR KBKF 131058Z 07008KT 10SM OVC055 M00/M11 A3020 RMK AO2A SLP230  
T10011109  
METAR KBKF 130958Z 07010KT 10SM OVC050 00/M10 A3020 RMK AO2A SLP226  
T00021103  
 
KAPA 131120Z 1312/1412 08005KT P6SM VCSH SCT022 OVC045  
FM131600 15008KT P6SM SCT030 OVC045  
FM132000 33011KT P6SM OVC050  
FM140200 32011KT 4SM -SN BR SCT008 OVC020  
TEMPO 1403/1406 1 1/2SM -SN BR OVC008  
FM140900 VRB05KT P6SM VCSH BKN008 OVC020  
METAR KAPA 131153Z 09008KT 10SM OVC050 00/M11 A3019 RMK AO2 SLP239  
T00001111 10022 20000 53001  
METAR KAPA 131053Z 07005KT 10SM OVC050 00/M11 A3018 RMK AO2 SLP237  
T00001111  
METAR KAPA 130953Z 09004KT 10SM OVC055 02/M11 A3018 RMK AO2 SLP225  
T00171106  
 
METAR KMNH 131215Z AUTO 14006KT 10SM OVC038 M02/M10 A3019 RMK AO2  
METAR KMNH 131155Z AUTO 14005KT 10SM OVC038 M02/M10 A3018 RMK AO2  
METAR KMNH 131135Z AUTO 14006KT 10SM OVC038 M02/M09 A3018 RMK AO2  
 
METAR KFMM 131215Z AUTO 01007KT 10SM BKN060 OVC075 00/M11 A3028 RMK AO2  
T10051111  
METAR KFMM 131155Z AUTO 36008KT 10SM BKN060 OVC075 00/M11 A3026 RMK AO2  
T10021111 10028 21005  
METAR KFMM 131135Z AUTO 01007KT 10SM SCT060 OVC075 00/M11 A3026 RMK AO2  
T10011111  
 
METAR KSTK 131215Z AUTO 01003KT 10SM OVC070 00/M07 A3026 RMK AO2  
METAR KSTK 131155Z AUTO 02003KT 10SM OVC070 00/M07 A3025 RMK AO2  
METAR KSTK 131135Z AUTO 02003KT 10SM BKN070 OVC080 00/M07 A3025 RMK  
AO2  
 
METAR KAKO 131153Z AUTO 02007KT 10SM OVC065 M01/M10 A3024 RMK AO2 SLP252  
T10061100 10028 21006 53004 $  
METAR KAKO 131053Z AUTO 01006KT 10SM OVC065 00/M10 A3023 RMK AO2 SLP248  
T00001100 $  
METAR KAKO 130953Z AUTO 02008KT 10SM OVC065 00/M10 A3023 RMK AO2 SLP243  
T00001100 $  
 
METAR KLIC 131155Z AUTO 11008KT 10SM OVC055 00/M11 A3021 RMK AO2 SLP226  
T00001111 10033 20000 53003 $  
METAR KLIC 131055Z AUTO 09006KT 10SM OVC055 01/M11 A3020 RMK AO2 SLP216  
T00111106 $  
METAR KLIC 130955Z AUTO 09006KT 10SM OVC055 01/M11 A3021 RMK AO2 SLP219  
T00111111 $  
 
METAR KHEQ 131215Z AUTO 34010KT 10SM BKN080 02/M07 A3027 RMK AO2  
METAR KHEQ 131155Z AUTO 35009KT 10SM BKN080 02/M06 A3026 RMK AO2  
METAR KHEQ 131135Z AUTO 35007KT 10SM BKN080 02/M06 A3025 RMK AO2  
 
METAR K2V6 131219Z AUTO 34006KT 10SM OVC070 00/M11 A3026 RMK AO2  
METAR K2V6 131159Z AUTO 35004KT 10SM OVC070 00/M11 A3026 RMK AO2  
METAR K2V6 131139Z AUTO 36006KT 10SM OVC070 00/M11 A3025 RMK AO2  
 
METAR K2V5 131215Z AUTO 01005KT 10SM OVC075 01/M07 A3028 RMK AO2  
METAR K2V5 131155Z AUTO 01004KT 10SM OVC075 01/M07 A3027 RMK AO2  
METAR K2V5 131135Z AUTO 02007KT 10SM OVC075 01/M07 A3026 RMK AO2  
 
METAR KITR 131153Z AUTO 02008KT 10SM OVC070 03/M09 A3025 RMK AO2 SLP240  
T00281089 10050 20028 53008  
METAR KITR 131053Z AUTO 03008KT 10SM OVC075 03/M09 A3024 RMK AO2 SLP232  
T00281089  
METAR KITR 130953Z AUTO 03009KT 10SM OVC070 03/M09 A3024 RMK AO2 SLP228  
T00331094  
 
SUNRISE/SUNSET FOR 04/13/2021  
FORT COLLINS - 06:23:53 MDT / 19:37:27 MDT  
DENVER - 06:24:27 MDT / 19:36:02 MDT  
STERLING - 06:16:21 MDT / 19:30:10 MDT  
 
DENVER/BOULDER (KFTG) 04/13/21 12:17 UTC  
RADAR VAD WINDS HEIGHT DIR/SPD(KT)  
24000 FT MSL...254/063  
22000 FT MSL...253/056  
20000 FT MSL...253/050  
19000 FT MSL...256/045  
18000 FT MSL...254/040  
17000 FT MSL...249/036  
16700 FT MSL...250/035  
16000 FT MSL...267/037  
15000 FT MSL...266/035  
14500 FT MSL...263/033  
14000 FT MSL...259/031  
13000 FT MSL...251/028  
12600 FT MSL...237/026  
12000 FT MSL...229/024  
11200 FT MSL...213/024  
11000 FT MSL...212/024  
10000 FT MSL...197/018  
10000 FT MSL...190/019  
9000 FT MSL...163/013  
8100 FT MSL...125/009  
8000 FT MSL...116/006  
7000 FT MSL...053/004  
6700 FT MSL...147/009  
 
DENVER/BOULDER AVIATION DISCUSSION  
ISSUED AT 0944 UTC TUESDAY, APRIL 13, 2021  
   
AVIATION
 
(FOR THE 12Z TAFS THROUGH 12Z WEDNESDAY MORNING)  
ISSUED AT 345 AM MDT TUE APR 13 2021  
AREAS OF LIGHT SNOW EARLY THIS MORNING WILL MOST LIKELY BE  
CONFINED TO AREAS WEST OF KDEN. PERHAPS A FEW FLURRIES AT BEST AND  
AREAS OF MVFR CEILINGS TIL ABOUT 16Z. A DENVER CYCLONE WILL FORM  
TODAY, WHICH WILL RESULT IN A CHALLENGING WIND FORECAST AFTER 18Z.  
EVENTUALLY, THE CYCLONE SHIFTS EAST OF DENVER AND WILL BRING  
NORTHWEST WINDS TO ALL OF THE DENVER AREA AIRPORTS BY 21Z-00Z.  
WEDNESDAY. CEILINGS UNDER 6000 FEET SHOULD REQUIRE ILS APPROACHES  
ALL DAY.  
SNOW IS EXPECTED TO BECOME MORE WIDESPREAD AFTER 00-02Z AS THE  
NEXT SYSTEM MOVES INTO THE AREA. VISIBILITY MAY OCCASIONALLY BE  
REDUCED TO 1-2SM IN LIGHT SNOW, AS THE HEAVIEST SHOWERS SHOULD  
STAY NORTH OF KDEN OVERNIGHT. NO SNOW ACCUMULATION IS EXPECTED ON  
PAVED SURFACES, WITH AROUND AN INCH OR SO ON THE GRASS. ONLY LOW  
TO MODERATE CONFIDENCE DUE TO SHOWERY NATURE OF PRECIPITATION.  
 
* * * * * SOUTHEAST COLORADO * * * * *  
 
METAR K4BM 131215Z AUTO 16004KT 1/2SM FG OVC002 A3014 RMK AO2  
METAR K4BM 131155Z AUTO 17006KT 1/2SM -SN OVC002 A3014 RMK AO2  
METAR K4BM 131135Z AUTO 16005KT 1/2SM FZFG OVC002 M08/M10 A3014 RMK  
AO2  
 
METAR KAFF 131158Z AUTO 16010KT 10SM OVC045 00/M11 A3016 RMK AO2 SLP217  
T00011107 10012 20001 55003  
METAR KAFF 131058Z AUTO 16007KT 10SM OVC043 00/M10 A3016 RMK AO2 SLP210  
T00041104  
METAR KAFF 130958Z AUTO 15008KT 10SM OVC040 01/M10 A3016 RMK AO2 SLP204  
T00071099  
 
KCOS 131120Z 1312/1412 14010KT P6SM VCSH SCT015 OVC040  
FM131600 15010G20KT P6SM VCSH BKN035  
FM131900 17010G20KT P6SM BKN050  
FM140000 13010KT P6SM VCSH SCT030 OVC050  
FM140300 09010KT 3SM -SHRASN BR OVC020  
FM140600 13010KT 2SM -SHSN BR OVC015  
FM141000 12006KT P6SM SCT015 BKN030  
METAR KCOS 131154Z 15006KT 10SM OVC048 02/M09 A3020 RMK AO2 SLP225  
T00171094 10028 20017 55000 $  
METAR KCOS 131054Z 14007KT 10SM OVC048 02/M10 A3019 RMK AO2 SLP224  
T00171100 $  
METAR KCOS 130954Z 12007KT 10SM OVC049 02/M09 A3019 RMK AO2 SLP220  
T00221094 $  
 
METAR KABH 131158Z AUTO 11012KT 10SM OVC050 01/M11 A3021 RMK AO2 SLP237  
T00071114 10030 20007 53001  
METAR KABH 131058Z AUTO 12011KT 10SM OVC050 01/M12 A3021 RMK AO2 SLP237  
T00141117  
METAR KABH 130958Z AUTO 11009KT 10SM OVC050 02/M10 A3020 RMK AO2 SLP233  
T00181104  
 
METAR KFLY 131215Z AUTO 17010KT 110V190 10SM OVC042 M01/M11 A3020 RMK  
AO2 T10071112  
METAR KFLY 131155Z AUTO 12010KT 10SM OVC042 M01/M11 A3019 RMK AO2 T10071115  
10001 21007  
METAR KFLY 131135Z AUTO 11010KT 10SM OVC042 M01/M11 A3019 RMK AO2  
T10061111  
 
METAR KFCS 131158Z AUTO 15008KT 10SM OVC050 02/M10 A3019 RMK AO2 SLP238  
70007 T00171102 10031 20017 53001 $  
METAR KFCS 131058Z AUTO 16005KT 10SM OVC050 02/M10 A3018 RMK AO2 SLP235  
T00211101 $  
METAR KFCS 130958Z AUTO 12007KT 10SM OVC050 02/M10 A3018 RMK AO2 SLP240  
T00231099 $  
 
KPUB 131120Z 1312/1412 09011KT P6SM OVC060  
FM131500 11010G20KT P6SM OVC070  
FM132000 12012G22KT P6SM SCT070 BKN100  
FM140200 10010G20KT P6SM VCSH OVC050  
FM140400 08013KT 5SM -SHRA BR OVC030  
FM141000 07012KT P6SM BKN050  
METAR KPUB 131153Z 11014KT 10SM OVC060 04/M08 A3020 RMK AO2 SLP214  
T00441083 10078 20044 53004  
METAR KPUB 131053Z AUTO 11013KT 10SM OVC065 05/M08 A3019 RMK AO2 SLP210  
T00501083  
METAR KPUB 130953Z AUTO 11013KT 10SM OVC060 06/M09 A3019 RMK AO2 SLP209  
T00561089  
 
METAR KVTP 131215Z AUTO 06009KT 3/4SM BR OVC001 M09/M10 A3011 RMK  
AO2  
METAR KVTP 131155Z AUTO 08006KT 7SM BKN001 BKN050 OVC070 M08/M10 A3012  
RMK AO2  
METAR KVTP 131135Z AUTO 07007KT 10SM BKN070 OVC080 M08/M09 A3012 RMK  
AO2  
 
METAR KTAD 131154Z AUTO 00000KT 10SM OVC110 M03/M09 A3019 RMK AO2 SLP215  
T10331089 10006 21039 53002  
METAR KTAD 131054Z AUTO 29006KT 10SM CLR M03/M09 A3017 RMK AO2 SLP200  
T10331089  
METAR KTAD 130954Z AUTO 27006KT 10SM CLR M03/M09 A3017 RMK AO2 SLP207  
T10331089  
 
METAR KLHX 131153Z AUTO 09009KT 10SM OVC070 03/M08 A3022 RMK AO2 SLP222  
T00331083 10061 20033 51006  
METAR KLHX 131053Z AUTO 09008KT 10SM OVC075 03/M08 A3022 RMK AO2 SLP221  
T00331078  
METAR KLHX 130953Z AUTO 09006KT 10SM OVC075 03/M07 A3021 RMK AO2 SLP218  
T00331067  
 
METAR KLAA 131153Z AUTO 00000KT 10SM OVC075 00/M07 A3023 RMK AO2 SLP232  
T00001067 10039 21006 51006  
METAR KLAA 131053Z AUTO 11005KT 10SM BKN075 00/M08 A3022 RMK AO2 SLP231  
T00001083  
METAR KLAA 130953Z AUTO 09005KT 10SM BKN080 01/M08 A3021 RMK AO2 SLP226  
T00061078  
 
METAR KSPD 131156Z AUTO 03003KT M02/M10 A3020 RMK AO1 SLP223 T10221100  
10028 21022 53005  
METAR KSPD 131056Z AUTO 04009KT M01/M09 A3020 RMK AO1 SLP218  
T10111094  
METAR KSPD 130956Z AUTO 36005KT M01/M09 A3018 RMK AO1 SLP212  
T10111089  
 
SUNRISE/SUNSET FOR 04/13/2021  
BURLINGTON - 06:14:12 MDT / 19:24:47 MDT  
PUEBLO - 06:24:48 MDT / 19:32:58 MDT  
LAMAR - 06:16:59 MDT / 19:24:45 MDT  
 
PUEBLO AVIATION DISCUSSION  
ISSUED AT 1021 UTC TUESDAY, APRIL 13, 2021  
   
AVIATION
 
(FOR THE 12Z TAFS THROUGH 12Z WEDNESDAY MORNING)  
ISSUED AT 420 AM MDT TUE APR 13 2021  
VFR CIGS WILL PERSIST THROUGH THE DAY AT ALL THREE TERMINALS WITH  
BREEZY EAST TO SOUTHEAST WINDS AT 10-20 KTS AT KCOS AND KPUB AND  
BREEZY SOUTHWESTERLY WINDS AROUND 10-20 KTS AT KALS DURING THE  
AFTERNOON. CEILINGS WILL DROP INTO THE MFVR TO IFR CATEGORY AT KCOS  
THIS EVENING AS SHOWERS SPREAD IN AFTER 00Z. COULD SEE A RAIN/SNOW  
MIX AT THE TERMINAL AROUND 03Z WITH UP TO AN INCH OF SLUSHY SNOW  
ACCUMULATION RESTRICTED TO THE GRASS POSSIBLE OVERNIGHT. KPUB IS  
MORE LIKELY TO STAY VFR TO MVFR WITH SOME BRIEF LIGHT -SHRA  
POSSIBLE. CEILINGS WILL LIFT INTO THE MVFR TO VFR CATEGORY FOR BOTH  
TERMINALS WED MORNING. KALS COULD SEE A BRIEF WINDOW OF MVFR CIGS  
WITH -SHRA THIS EVENING BEFORE RETURNING TO VFR. -KT  
 
* * * * * NORTHWEST COLORADO * * * * *  
 
METAR KCAG 131153Z AUTO 00000KT 10SM CLR M06/M10 A3004 RMK AO2 SLP183  
T10611100 11039 21067 55001  
METAR KCAG 131053Z AUTO 00000KT 10SM CLR M06/M09 A3003 RMK AO2 SLP175  
T10561089  
METAR KCAG 130953Z AUTO 22003KT 10SM CLR M05/M09 A3004 RMK AO2 SLP177  
T10501094  
 
METAR KHDN 131156Z AUTO 26003KT 10SM CLR M05/M09 A3004 RMK AO2 SLP175  
T10501094 10011 21050 55000 FZRANO  
METAR KHDN 131056Z AUTO 22004KT 10SM CLR M04/M10 A3003 RMK AO2 SLP168  
T10441100 FZRANO  
METAR KHDN 130956Z AUTO 22005KT 10SM CLR M04/M10 A3003 RMK AO2 SLP171  
T10391100 FZRANO  
 
METAR KSBS 131215Z AUTO 00000KT 10SM CLR M04/M10 A3000 RMK AO1  
T10361096  
METAR KSBS 131155Z AUTO 31003KT 10SM CLR M03/M10 A3000 RMK AO1 T10331099  
11005 21033  
METAR KSBS 131135Z AUTO 00000KT 10SM CLR M03/M09 A3000 RMK AO1  
T10331095  
 
METAR KC07 131215Z AUTO 12005KT 10SM BKN080 OVC110 M08/M10 A3002 RMK  
AO2  
METAR KC07 131155Z AUTO 11006KT 10SM OVC080 M08/M10 A3003 RMK AO2  
METAR KC07 131135Z AUTO 11006KT 10SM OVC090 M08/M10 A3003 RMK AO2  
 
METAR K33V 131215Z AUTO 00000KT 10SM CLR M07/M11 A3007 RMK AO2  
T10741109  
METAR K33V 131155Z AUTO 00000KT 10SM CLR M07/M11 A3007 RMK AO2 T10711106  
11063 21081  
METAR K33V 131135Z AUTO 31003KT 10SM CLR M07/M11 A3006 RMK AO2  
T10701107  
 
METAR KEEO 131153Z AUTO 00000KT 10SM CLR M03/M12 A3001 RMK AO2 SLP145  
T10281117 10011 21033 56002  
METAR KEEO 131053Z AUTO 00000KT 10SM FEW120 M02/M11 A3001 RMK AO2 SLP137  
T10171111  
METAR KEEO 130953Z AUTO 00000KT 10SM CLR M02/M11 A3001 RMK AO2 SLP140  
T10221106  
 
METAR K20V 131215Z AUTO 14003KT 10SM BKN031 OVC070 M01/M08 A3006 RMK  
AO2  
METAR K20V 131155Z AUTO 12004KT 10SM OVC031 M01/M07 A3005 RMK AO2  
METAR K20V 131135Z AUTO 12005KT 10SM OVC033 M01/M08 A3004 RMK AO2  
 
METAR KGNB 131215Z AUTO 03005KT 5SM -SN SCT022 BKN030 OVC039 M03/M04  
A3004 RMK AO2 T10321045  
METAR KGNB 131155Z AUTO 03003KT 3SM -SN BKN022 OVC028 M03/M04 A3004 RMK  
AO2 T10301042 11016 21034  
METAR KGNB 131135Z AUTO 00000KT 3SM -SN BKN024 OVC031 M03/M05 A3004 RMK  
AO2 T10271049  
 
METAR K0CO 131215Z AUTO 17012G18KT 4SM HZ SCT009 BKN016 OVC025 M12/M20  
A3007 RMK AO2  
METAR K0CO 131155Z AUTO 16015G20KT 3SM -SN BKN011 BKN018 OVC026 M12/M20  
A3006 RMK AO2  
METAR K0CO 131135Z AUTO 16015G20KT 2 1/2SM -SN BKN017 OVC028 M12/M20  
A3006 RMK AO2  
 
METAR KC99 131215Z AUTO 17008KT 120V200 1SM OVC002 M12/M13 A3007 RMK  
AO2  
METAR KC99 131155Z AUTO 15007KT 090V200 1 1/4SM OVC002 M12/M13 A3008 RMK  
AO2  
METAR KC99 131135Z AUTO 15005KT 1 1/4SM OVC002 M12/M13 A3008 RMK AO2  
 
KGJT 131128Z 1312/1412 VRB04KT P6SM SCT120 BKN180  
FM131500 16008KT P6SM SCT120 BKN180  
FM131700 16009KT P6SM BKN120  
FM132000 21009KT P6SM VCSH BKN100  
FM140200 11009KT P6SM VCSH SCT080 BKN100  
METAR KGJT 131153Z AUTO 00000KT 10SM CLR 07/M11 A2989 RMK AO2 SLP083  
T00671111 10106 20067 55000  
METAR KGJT 131053Z AUTO 01005KT 10SM FEW120 08/M12 A2988 RMK AO2 SLP075  
T00831122  
METAR KGJT 130953Z AUTO 00000KT 10SM FEW120 08/M11 A2989 RMK AO2 SLP078  
T00781111  
 
KRIL 131128Z 1312/1412 30006KT P6SM BKN110  
FM131800 26006KT P6SM VCSH OVC090  
FM140000 26006KT P6SM VCSH BKN080  
FM140200 20006KT P6SM VCSH SCT035 BKN060  
FM140600 17005KT P6SM SCT030 BKN050  
METAR KRIL 131153Z AUTO 33007KT 10SM OVC110 03/M11 A2995 RMK AO2 SLP111  
T00331111 10067 20033 58001  
METAR KRIL 131053Z AUTO VRB03KT 10SM BKN110 03/M11 A2996 RMK AO2 SLP108  
T00331106  
METAR KRIL 130953Z AUTO 31009G17KT 10SM OVC110 04/M11 A2996 RMK AO2  
SLP109 T00441111  
 
METAR K5SM 131215Z AUTO 22009KT 10SM M01/M09 A3005 RMK AO2  
METAR K5SM 131155Z AUTO 25006KT 10SM M01/M10 A3005 RMK AO2  
METAR K5SM 131135Z AUTO 24007KT 10SM M01/M10 A3005 RMK AO2  
 
KEGE 131128Z 1312/1412 VRB03KT P6SM OVC090  
FM131700 VRB04KT P6SM VCSH SCT060 BKN080  
FM132100 24008KT P6SM VCSH SCT060 BKN070  
FM140100 06005KT P6SM VCSH SCT040 BKN060  
FM140400 VRB03KT 6SM -SHRA BR SCT030 OVC060  
METAR KEGE 131156Z AUTO 26003KT 10SM OVC100 03/M09 A3000 RMK AO2 SLP137  
6//// 7//// T00331089 10050 20028 55001 PNO $  
METAR KEGE 131056Z AUTO 28003KT 10SM OVC090 03/M08 A2999 RMK AO2 SLP138  
T00281078 PNO $  
METAR KEGE 130956Z AUTO 00000KT 10SM OVC100 03/M09 A3000 RMK AO2 SLP139  
T00331094 PNO $  
 
KASE 131128Z 1312/1412 VRB04KT P6SM VCSH SCT080 OVC100  
FM131900 04007KT 6SM -SHRA BR SCT045 OVC060  
FM132300 15008KT 6SM -SHRASN BR OVC040  
FM140400 15005KT 5SM -SHRASN BR SCT030 OVC060  
METAR KASE 131153Z AUTO 33003KT 10SM OVC080 03/M10 A2995 RMK AO2 SLP066  
T00281100 10050 20028 53000  
METAR KASE 131053Z AUTO 00000KT 10SM OVC100 03/M09 A2994 RMK AO2 SLP059  
T00331089  
METAR KASE 130953Z AUTO 22007KT 10SM OVC095 04/M08 A2993 RMK AO2 SLP053  
T00391078  
 
METAR KCCU 131215Z AUTO 17014KT 4SM HZ SCT008 OVC015 M04/M07 A3007 RMK  
AO2  
METAR KCCU 131155Z AUTO 17016KT 2SM -SN OVC008 M05/M08 A3007 RMK AO2  
METAR KCCU 131135Z AUTO 18015KT 3SM -SN BKN012 OVC019 M05/M08 A3007 RMK  
AO2  
 
METAR KLXV 131153Z AUTO 19011KT 10SM OVC070 M06/M08 A3007 RMK AO2 SLP112  
T10611083 11039 21061 56005  
METAR KLXV 131053Z AUTO 19012KT 10SM BKN060 OVC090 M06/M08 A3007 RMK AO2  
SLP103 T10561083  
METAR KLXV 130953Z AUTO 20010KT 10SM OVC045 M06/M09 A3008 RMK AO2 SLP106  
T10561089  
 
SUNRISE/SUNSET FOR 04/13/2021  
RANGELY - 06:39:18 MDT / 19:51:44 MDT  
GRAND JUNCTION - 06:39:34 MDT / 19:49:39 MDT  
STEAMBOAT SPRINGS - 06:31:00 MDT / 19:44:22 MDT  
 
GRAND JUNCTION (KGJX) 04/13/21 12:11 UTC  
RADAR VAD WINDS HEIGHT DIR/SPD(KT)  
25000 FT MSL...250/070  
24000 FT MSL...245/053  
22000 FT MSL...239/048  
20000 FT MSL...238/047  
19000 FT MSL...242/044  
18000 FT MSL...244/040  
18000 FT MSL...246/041  
17000 FT MSL...241/034  
16300 FT MSL...241/032  
16000 FT MSL...241/031  
15000 FT MSL...239/027  
14600 FT MSL...239/027  
14000 FT MSL...245/025  
13000 FT MSL...239/023  
12900 FT MSL...234/024  
12000 FT MSL...239/018  
11000 FT MSL...251/016  
10400 FT MSL...278/027  
10000 FT MSL...271/021  
9900 FT MSL...231/022  
 
GRAND JUNCTION AVIATION DISCUSSION  
ISSUED AT 1135 UTC TUESDAY, APRIL 13, 2021  
   
AVIATION
 
(FOR THE 12Z TAFS THROUGH 12Z WEDNESDAY MORNING)  
ISSUED AT 535 AM MDT TUE APR 13 2021  
BROKEN TO OVERCAST MID AND HIGH-CLOUDS PERSIST ACROSS MUCH OF  
EASTERN UTAH AND WESTERN COLORADO THIS MORNING, THOUGH CIGS REMAIN  
ABOVE ILS BREAKPOINTS AT THE MOMENT. SHOWERS WILL SPREAD ACROSS  
THE AREA THROUGHOUT THE DAY AS A DISTURBANCE APPROACHES THE REGION,  
FAVORING THE HIGHER ELEVATIONS ALONG THE DIVIDE. LOWER ELEVATIONS  
ARE LIKELY TO SEE MORE WIND THAN RAIN WITH BREEZY CONDITIONS  
TUESDAY AFTERNOON AS DRY AIR AT LOW LEVELS WILL BE TOUGH TO  
OVERCOME. EXPECT VFR CONDITIONS FOR MOST AREAS, WITH LOWER CIGS  
IN ANY SHOWERS FOR BRIEF MVFR/IFR POSSIBLE, MORE FAVORED FOR THE  
HIGHER TERRAIN TAF SITES. SHOWER COVERAGE AND BETTER CHANCES FOR  
WETTING RAINS WILL OCCUR IN THE VALLEYS OVERNIGHT AND INTO EARLY  
WEDNESDAY MORNING.  
 
* * * * * SOUTHWEST COLORADO * * * * *  
 
METAR KAJZ 131215Z AUTO 00000KT 10SM BKN120 08/M10 A2991 RMK AO2  
T00751104  
METAR KAJZ 131155Z AUTO 00000KT 10SM SCT120 07/M12 A2990 RMK AO2  
T00741116 10124 20074  
METAR KAJZ 131135Z AUTO 00000KT 10SM SCT120 08/M11 A2990 RMK AO2  
T00811115  
 
KMTJ 131128Z 1312/1412 VRB04KT P6SM SCT150 BKN180  
FM131500 35005KT P6SM OVC100  
FM131800 31008KT P6SM VCSH SCT070 OVC090  
FM132300 31010KT P6SM VCSH SCT070 BKN090  
FM140300 16006KT P6SM VCSH BKN080  
METAR KMTJ 131153Z AUTO 19003KT 10SM FEW120 06/M09 A2992 RMK AO2 SLP083  
T00561089 10089 20044 53000  
METAR KMTJ 131053Z AUTO 00000KT 10SM CLR 06/M09 A2991 RMK AO2 SLP080  
T00561089  
METAR KMTJ 130953Z AUTO 00000KT 10SM CLR 06/M10 A2992 RMK AO2 SLP081  
T00611100  
 
METAR KGUC 131156Z AUTO 00000KT 10SM BKN090 OVC110 01/M08 A2998 RMK AO2  
SLP114 7//// T00111078 10039 20006 58004 FZRANO  
METAR KGUC 131056Z AUTO 36006KT 10SM BKN095 01/M08 A2998 RMK AO2 SLP116  
T00111083 FZRANO  
METAR KGUC 130956Z AUTO 01005KT 10SM BKN100 BKN120 01/M09 A2999 RMK AO2  
SLP120 T00111089 FZRANO  
 
METAR K7BM 131215Z AUTO 12005KT 1 3/4SM -SN OVC008 M04/M06 A3012 RMK  
AO2  
METAR K7BM 131155Z AUTO 00000KT 5SM -SN SCT008 BKN014 OVC022 M03/M07  
A3012 RMK AO2  
METAR K7BM 131135Z AUTO 13005KT 10SM OVC014 M03/M07 A3011 RMK AO2  
 
METAR KAEJ 131215Z AUTO 14008KT 10SM SCT019 BKN027 OVC033 M01/M09 A3014  
RMK AO2 T10081087  
METAR KAEJ 131155Z AUTO 16008KT 10SM OVC033 M01/M09 A3013 RMK AO2  
T10071088 10011 21007  
METAR KAEJ 131135Z AUTO 16008KT 10SM OVC033 00/M09 A3013 RMK AO2  
T10051092  
 
METAR KANK 131215Z AUTO 10008KT 10SM OVC031 00/M07 A3022 RMK AO1  
T00031069  
METAR KANK 131155Z AUTO 09006KT 10SM OVC033 00/M07 A3021 RMK AO1  
T00041070 10025 20004  
METAR KANK 131135Z AUTO 12009KT 10SM OVC035 00/M07 A3020 RMK AO1  
T00041070  
 
METAR KMYP 131215Z AUTO M1/4SM -SN OVC001 M10/M12 A3020 RMK AO2 TSNO  
METAR KMYP 131155Z AUTO M1/4SM FZFG OVC001 M10/M12 A3019 RMK AO2  
TSNO  
METAR KMYP 131135Z AUTO M1/4SM FZFG OVC001 M10/M12 A3019 RMK AO2  
TSNO  
 
KTEX 131128Z 1312/1412 13010KT P6SM OVC100  
FM131700 18006KT P6SM VCSH SCT050 OVC060  
FM132200 15008KT 6SM -SHRASN BR SCT030 BKN050  
FM140100 11007KT P6SM VCSH SCT035 BKN045  
FM140400 VRB04KT P6SM SCT045 BKN080  
METAR KTEX 131215Z AUTO 00000KT 10SM OVC100 06/M07 A2998 RMK AO2  
METAR KTEX 131155Z AUTO 00000KT 10SM OVC100 07/M08 A2997 RMK AO2  
METAR KTEX 131135Z AUTO 00000KT 10SM OVC100 06/M08 A2997 RMK AO2  
 
METAR K04V 131215Z AUTO 12006KT 10SM CLR 00/M08 A3006 RMK AO2  
METAR K04V 131155Z AUTO 12006KT 10SM CLR 00/M08 A3006 RMK AO2  
METAR K04V 131135Z AUTO 13006KT 10SM CLR 00/M08 A3005 RMK AO2  
 
METAR KCEZ 131153Z AUTO 07007KT 10SM BKN120 06/M07 A2987 RMK AO2 SLP062  
T00611067 10067 20028 53004  
METAR KCEZ 131053Z AUTO 08004KT 10SM SCT120 04/M07 A2986 RMK AO2 SLP060  
T00391067  
METAR KCEZ 130953Z AUTO VRB05KT 10SM CLR 04/M08 A2985 RMK AO2 SLP058  
T00391078  
 
KDRO 131128Z 1312/1412 34005KT P6SM OVC100  
FM131500 11006KT P6SM SCT080 OVC100  
FM131800 17007KT P6SM VCSH SCT090 BKN100  
FM132100 14010G18KT P6SM VCSH SCT070 BKN100  
FM140200 12006KT P6SM SCT060 BKN100  
FM140500 24006KT P6SM FEW080 SCT100  
METAR KDRO 131153Z AUTO VRB03KT 10SM FEW070 FEW090 OVC100 06/M09 A2993  
RMK AO2 SLP085 T00561094 10061 20022 53003  
METAR KDRO 131053Z AUTO 34005KT 10SM OVC100 04/M09 A2991 RMK AO2 SLP077  
T00391094  
METAR KDRO 130953Z AUTO 09006KT 10SM FEW110 02/M11 A2991 RMK AO2 SLP085  
T00221106  
 
METAR KPSO 131215Z AUTO 00000KT 10SM SCT040 SCT050 OVC065 06/M06 A3001  
RMK AO2 T00621061  
METAR KPSO 131155Z AUTO 00000KT 10SM SCT049 BKN070 OVC075 06/M07 A3000  
RMK AO2 T00561069 10080 20020  
METAR KPSO 131135Z AUTO 00000KT 10SM SCT070 OVC090 05/M07 A2999 RMK AO2  
T00541075  
 
METAR KCPW 131215Z AUTO 21017G24KT 2SM -SN SCT008 OVC015 M03/M06 A3015  
RMK AO2 VIS 1 1/4V4  
METAR KCPW 131155Z AUTO 21015G20KT 10SM SCT015 BKN026 OVC041 M03/M10  
A3015 RMK AO2  
METAR KCPW 131135Z AUTO 23012G18KT 10SM BKN021 BKN032 OVC050 M02/M10  
A3015 RMK AO2  
 
KALS 131120Z 1312/1412 VRB06KT P6SM OVC110  
FM131500 17012KT P6SM SCT070 OVC110  
FM131800 20014G22KT P6SM OVC070  
FM140000 17012G22KT P6SM VCSH OVC050  
FM140300 13012G22KT 5SM SHRASN OVC030  
FM140600 14008KT P6SM SCT030 BKN070  
METAR KALS 131152Z AUTO 27004KT 10SM BKN090 00/M08 A3006 RMK AO2 SLP126  
T00001083 10033 21011 53005  
METAR KALS 131052Z AUTO 08003KT 10SM SCT100 BKN120 00/M08 A3004 RMK AO2  
SLP119 T00001078  
METAR KALS 130952Z AUTO 00000KT 10SM BKN110 00/M07 A3004 RMK AO2 SLP116  
T00001072  
 
SUNRISE/SUNSET FOR 04/13/2021  
VAIL - 06:30:09 MDT / 19:41:31 MDT  
DURANGO - 06:38:53 MDT / 19:44:52 MDT  
ALAMOSA - 06:30:42 MDT / 19:37:05 MDT  
 
GRAND JUNCTION (KGJX) 04/13/21 12:11 UTC  
RADAR VAD WINDS HEIGHT DIR/SPD(KT)  
25000 FT MSL...250/070  
24000 FT MSL...245/053  
22000 FT MSL...239/048  
20000 FT MSL...238/047  
19000 FT MSL...242/044  
18000 FT MSL...244/040  
18000 FT MSL...246/041  
17000 FT MSL...241/034  
16300 FT MSL...241/032  
16000 FT MSL...241/031  
15000 FT MSL...239/027  
14600 FT MSL...239/027  
14000 FT MSL...245/025  
13000 FT MSL...239/023  
12900 FT MSL...234/024  
12000 FT MSL...239/018  
11000 FT MSL...251/016  
10400 FT MSL...278/027  
10000 FT MSL...271/021  
9900 FT MSL...231/022  
 
GRAND JUNCTION AVIATION DISCUSSION  
ISSUED AT 1135 UTC TUESDAY, APRIL 13, 2021  
   
AVIATION
 
(FOR THE 12Z TAFS THROUGH 12Z WEDNESDAY MORNING)  
ISSUED AT 535 AM MDT TUE APR 13 2021  
BROKEN TO OVERCAST MID AND HIGH-CLOUDS PERSIST ACROSS MUCH OF  
EASTERN UTAH AND WESTERN COLORADO THIS MORNING, THOUGH CIGS REMAIN  
ABOVE ILS BREAKPOINTS AT THE MOMENT. SHOWERS WILL SPREAD ACROSS  
THE AREA THROUGHOUT THE DAY AS A DISTURBANCE APPROACHES THE REGION,  
FAVORING THE HIGHER ELEVATIONS ALONG THE DIVIDE. LOWER ELEVATIONS  
ARE LIKELY TO SEE MORE WIND THAN RAIN WITH BREEZY CONDITIONS  
TUESDAY AFTERNOON AS DRY AIR AT LOW LEVELS WILL BE TOUGH TO  
OVERCOME. EXPECT VFR CONDITIONS FOR MOST AREAS, WITH LOWER CIGS  
IN ANY SHOWERS FOR BRIEF MVFR/IFR POSSIBLE, MORE FAVORED FOR THE  
HIGHER TERRAIN TAF SITES. SHOWER COVERAGE AND BETTER CHANCES FOR  
WETTING RAINS WILL OCCUR IN THE VALLEYS OVERNIGHT AND INTO EARLY  
WEDNESDAY MORNING.  
 
* * * * * ARIZONA * * * * *  
 
KPGA 131120Z 1312/1412 VRB04KT P6SM BKN200  
FM131900 21012G20KT P6SM BKN110  
METAR KPGA 131153Z AUTO 00000KT 10SM CLR 15/M12 A2978 RMK AO2 SLP029  
T01501117 10189 20150 56002 TSNO  
METAR KPGA 131053Z AUTO 00000KT 10SM CLR 16/M12 A2978 RMK AO2 SLP028  
T01611122 TSNO  
METAR KPGA 130953Z AUTO 24005KT 10SM CLR 17/M12 A2979 RMK AO2 SLP029  
T01671122 TSNO  
 
METAR KRQE 131153Z AUTO 19007KT 10SM FEW095 08/M07 A2995 RMK AO2 SLP046  
T00831072 10133 20078 53000 TSNO  
METAR KRQE 131053Z AUTO 18006KT 10SM CLR 09/M07 A2994 RMK AO2 SLP039  
T00891072 TSNO  
METAR KRQE 130953Z AUTO 18005KT 10SM CLR 10/M07 A2994 RMK AO2 SLP037  
T01001072 TSNO  
 
FLAGSTAFF (KFSX) 04/13/21 12:10 UTC  
RADAR VAD WINDS HEIGHT DIR/SPD(KT)  
12000 FT MSL...201/027  
11000 FT MSL...204/024  
10000 FT MSL...198/029  
9900 FT MSL...191/019  
9200 FT MSL...181/023  
9000 FT MSL...199/028  
8500 FT MSL...172/022  
8000 FT MSL...158/020  
7800 FT MSL...172/019  
7400 FT MSL...135/016  
7400 FT MSL...152/022  
 
FLAGSTAFF AVIATION DISCUSSION  
ISSUED AT 0938 UTC TUESDAY, APRIL 13, 2021  
   
AVIATION...FOR THE 12Z PACKAGE
 
VFR CONDITIONS WILL PREVAIL OVER  
THE NEXT 24 HOURS. LIGHT WINDS BECOMING SOUTHWEST 10-20 KTS WITH  
GUSTS 20-30 KTS THIS AFTERNOON. AN ISOLATED SHOWER OR RUMBLE OF  
THUNDER CANNOT BE RULED OUT THIS AFTERNOON NORTH OF A KGCN-KRQE  
LINE. WINDS WILL WEAKEN AFTER SUNSET BUT REMAIN LOCALLY BREEZY  
NORTHEAST OF HIGHER TERRAIN FEATURES. AVIATION DISCUSSION NOT  
UPDATED FOR TAF AMENDMENTS.  
 
* * * * * UTAH * * * * *  
 
KSLC 131120Z 1312/1418 32006KT P6SM SCT200  
TEMPO 1312/1316 10009KT P6SM SCT200  
FM131800 34009KT P6SM BKN120  
FM140000 07012G20KT P6SM VCSH BKN050 OVC070  
FM141400 32009KT P6SM VCSH BKN030 OVC050  
METAR KSLC 131154Z VRB05KT 10SM SCT200 06/M11 A2992 RMK AO2 SLP115  
T00561106 10067 20028 57005  
METAR KSLC 131054Z 01005KT 10SM SCT200 05/M10 A2992 RMK AO2 SLP116  
T00501100  
METAR KSLC 130954Z 19004KT 10SM SCT200 04/M07 A2993 RMK AO2 SLP120  
T00391067  
 
KVEL 131128Z 1312/1412 03011KT P6SM FEW120 SCT200  
FM131600 08012G20KT P6SM FEW080 SCT120  
FM132000 07008KT P6SM VCSH SCT080 SCT120  
FM140000 03012G24KT P6SM VCSH SCT080 BKN120  
FM140300 03020G30KT P6SM VCSH SCT030 OVC050  
METAR KVEL 131153Z AUTO 02007KT 10SM CLR 01/M13 A3004 RMK AO2 SLP158  
T00061128 10033 20006 57001  
METAR KVEL 131053Z AUTO 03011KT 10SM CLR 02/M13 A3004 RMK AO2 SLP158  
T00171133  
METAR KVEL 130953Z AUTO 03009KT 10SM CLR 02/M13 A3005 RMK AO2 SLP160  
T00171128  
 
METAR KPUC 131153Z AUTO 02014G24KT 10SM CLR 04/M13 A2989 RMK AO2 SLP103  
T00441133 10072 20039 58003  
METAR KPUC 131053Z AUTO 01013KT 10SM CLR 04/M13 A2989 RMK AO2 SLP101  
T00441128  
METAR KPUC 130953Z AUTO 02015KT 10SM CLR 04/M13 A2990 RMK AO2 SLP104  
T00441128  
 
KCNY 131128Z 1312/1412 10006KT P6SM SCT150 BKN200  
FM131500 10008KT P6SM SCT120 BKN150  
FM132300 05008KT P6SM VCSH BKN100  
FM140300 03006KT P6SM FEW070 SCT100  
METAR KCNY 131153Z AUTO 14004KT 10SM CLR 08/M13 A2985 RMK AO2 SLP073  
T00831133 10139 20083 53001 $  
METAR KCNY 131053Z AUTO 10004KT 10SM CLR 09/M13 A2984 RMK AO2 SLP071  
T00891133 $  
METAR KCNY 130953Z AUTO 12007KT 090V150 10SM CLR 10/M13 A2984 RMK AO2  
SLP070 T01001133 $  
 
SALT LAKE CITY (KMTX) 04/13/21 12:11 UTC  
RADAR VAD WINDS HEIGHT DIR/SPD(KT)  
22000 FT MSL...247/012  
20000 FT MSL...244/036  
19000 FT MSL...255/034  
18000 FT MSL...249/038  
17800 FT MSL...249/016  
17000 FT MSL...273/017  
16000 FT MSL...038/002  
15000 FT MSL...279/030  
14000 FT MSL...300/005  
13600 FT MSL...305/003  
12200 FT MSL...307/005  
12000 FT MSL...287/017  
11000 FT MSL...254/004  
11000 FT MSL...287/010  
10000 FT MSL...148/009  
9900 FT MSL...163/008  
9000 FT MSL...113/005  
9000 FT MSL...111/007  
8300 FT MSL...117/008  
8000 FT MSL...175/004  
7600 FT MSL...114/011  
6900 FT MSL...090/004  
6800 FT MSL...112/010  
6600 FT MSL...093/004  
 
SALT LAKE CITY AVIATION DISCUSSION  
ISSUED AT 1114 UTC TUESDAY, APRIL 13, 2021  
   
AVIATION
 
VFR CONDITIONS ARE EXPECTED AT KSLC THROUGH THE  
VALID TAF PERIOD. THE BIGGEST FORECAST UNCERTAINTY WILL BE WIND  
DIRECTION GOING INTO THE AFTERNOON. NORTHWEST FLOW IS EXPECTED TO  
PREVAIL, BUT SWITCHES TO THE NORTHEAST AND SOUTHEAST ARE ALSO  
EXPECTED. WIND SPEEDS ARE EXPECTED TO REMAIN LIGHT. BETWEEN 00Z-03Z,  
CONFIDENCE INCREASES IN WINDS PREVAILING FROM THE NORTHEAST. GUSTY  
CONDITIONS ARE POSSIBLE AT TIMES. CIGS WILL LOWER ENOUGH TO RESULT  
IN MOUNTAIN OBSCURATIONS TUESDAY NIGHT INTO WEDNESDAY WITH SCATTERED  
RAIN SHOWERS.  
 
* * * * * WYOMING * * * * *  
 
KEVW 131120Z 1312/1412 08025G35KT P6SM SCT200  
FM131800 08017G26KT P6SM BKN150  
FM132100 08020G30KT P6SM VCSH BKN070 OVC100  
FM140000 08030G50KT P6SM VCSH BKN040 OVC050=  
METAR KEVW 131153Z AUTO 08021G30KT 10SM FEW110 M07/M14 A3001 RMK AO2 PK  
WND 08033/1107 SLP158 T10671144 11028 21067 55001  
METAR KEVW 131053Z AUTO 08022G34KT 10SM CLR M07/M15 A3001 RMK AO2 PK WND  
09036/1009 SLP157 T10671150  
METAR KEVW 130953Z AUTO 08024G33KT 10SM CLR M06/M15 A3001 RMK AO2 PK WND  
08033/0948 SLP158 T10561150  
 
KRKS 131121Z 1312/1412 07020G30KT P6SM FEW070  
FM140300 07027G38KT P6SM VCSH BKN060  
METAR KRKS 131154Z AUTO 06017G25KT 10SM CLR M08/M12 A3012 RMK AO2 SLP227  
T10781122 11050 21078 56005  
METAR KRKS 131054Z AUTO 05016G25KT 10SM CLR M07/M12 A3012 RMK AO2 PK WND  
06028/1010 SLP225 T10721122  
METAR KRKS 130954Z AUTO 07020KT 10SM CLR M07/M12 A3012 RMK AO2 PK WND  
06028/0900 SLP222 T10721122  
 
KRWL 131136Z 1312/1412 05015G22KT P6SM BKN150  
FM140000 05020G30KT P6SM OVC050  
FM140600 05025G35KT 5SM -SHSN OVC030  
METAR KRWL 131153Z AUTO 04007KT 10SM CLR M08/M12 A3014 RMK AO2 SLP228  
T10781122 11050 21078 56004  
METAR KRWL 131053Z AUTO 04012KT 10SM CLR M07/M12 A3014 RMK AO2 SLP224  
T10671117  
METAR KRWL 130953Z AUTO 04010KT 10SM CLR M07/M12 A3014 RMK AO2 SLP222  
T10671117  
 
KLAR 131136Z 1312/1412 10005KT P6SM OVC035  
TEMPO 1312/1316 OVC020  
FM131600 12012G18KT P6SM OVC035  
FM140000 12010KT 5SM -SHSN OVC030  
FM140600 12020G30KT 2SM -SN OVC020  
METAR KLAR 131153Z AUTO 14008KT 10SM OVC033 M06/M11 A3012 RMK AO2 SLP212  
T10561111 11039 21056 56003  
METAR KLAR 131053Z AUTO 08004KT 10SM OVC038 M06/M11 A3012 RMK AO2 SLP208  
T10561106  
METAR KLAR 130953Z AUTO 09006KT 10SM OVC036 M06/M10 A3012 RMK AO2 SLP217  
T10561100  
 
KCYS 131136Z 1312/1412 01012G18KT P6SM OVC040  
FM131700 15010KT P6SM OVC040  
FM140000 10012G18KT P6SM VCSH OVC035  
FM140600 11010KT 2SM -SN OVC020  
METAR KCYS 131153Z 02007KT 10SM SCT050 M06/M10 A3020 RMK AO2 SLP262  
T10611100 11017 21061 53002  
METAR KCYS 131053Z AUTO 02012KT 10SM OVC048 M05/M11 A3019 RMK AO2 SLP255  
T10501106  
METAR KCYS 130953Z AUTO 01012G21KT 10SM OVC048 M05/M11 A3019 RMK AO2  
SLP257 T10501106  
 
RIVERTON (KRIW) 04/13/21 12:15 UTC  
RADAR VAD WINDS HEIGHT DIR/SPD(KT)  
14000 FT MSL...214/001  
11000 FT MSL...047/006  
10000 FT MSL...331/010  
10000 FT MSL...332/013  
9000 FT MSL...028/007  
9000 FT MSL...042/008  
8200 FT MSL...052/008  
8000 FT MSL...023/014  
7300 FT MSL...059/013  
7000 FT MSL...353/022  
6700 FT MSL...042/010  
6200 FT MSL...344/005  
 
CHEYENNE (KCYS) 04/13/21 12:12 UTC  
RADAR VAD WINDS HEIGHT DIR/SPD(KT)  
22000 FT MSL...253/071  
21000 FT MSL...254/069  
20000 FT MSL...254/062  
19000 FT MSL...254/065  
12400 FT MSL...305/016  
12000 FT MSL...263/014  
11000 FT MSL...231/017  
10700 FT MSL...216/018  
10000 FT MSL...200/015  
9000 FT MSL...174/009  
8900 FT MSL...181/009  
8000 FT MSL...156/003  
7300 FT MSL...079/019  
 
RIVERTON AVIATION DISCUSSION  
ISSUED AT 1048 UTC TUESDAY, APRIL 13, 2021  
   
AVIATION
 
(FOR THE 12Z TAFS THROUGH 12Z WEDNESDAY)  
ISSUED AT 440 AM MDT TUE APR 13 2021  
EAST OF THE DIVIDE...KCOD/KCPR/KLND/KRIW/KWRL TERMINALS  
LARGELY VFR CONDITIONS WILL PREVAIL AT TERMINALS THROUGH 08Z,  
OTHER THAN ISOLATED SHOWERS IN THE MOUNTAINS. LOCAL MVFR CEILINGS  
ARE POSSIBLE UNTIL 16Z THIS MORNING. LOW PRESSURE WILL APPROACH  
THE AREA AND BRING A GOOD CHANCE OF SHOWERS AND LOWER CEILINGS TO  
THE SOUTHERN SITES, MAINLY KLND, KRIW AND KCPR AFTER 08Z.  
WEST OF THE DIVIDE...KBPI/KJAC/KPNA/KRKS TERMINALS  
VFR CONDITIONS ARE EXPECTED AT ALL TERMINALS THROUGH AROUND 00Z.  
WINDS WILL GENERALLY BE LIGHT TO MODERATE, EXCEPT FOR KRKS WHERE  
GUSTY NORTHEAST TO EAST WINDS WILL CONTINUE THROUGH THE PERIOD AS  
WELL AS SOME GUSTY WINDS NEAR JACKSON. AN APPROACHING SYSTEM WILL  
BEGIN TO LOWER CEILINGS AND BRING SHOWERS TO THE VICINITY OF KRKS  
AROUND 03Z AND TO KPNA AND KBPI AFTER 06Z. SHOWERS SHOULD HOLD  
OFF IN VICINITY OF KJAC UNTIL AFTER 12Z WEDNESDAY.  
PLEASE SEE THE AVIATION WEATHER CENTER AND/OR CWSU ZDV AND ZLC FOR  
THE LATEST INFORMATION ON ICING AND TURBULENCE FORECASTS.  
 
CHEYENNE AVIATION DISCUSSION  
ISSUED AT 1141 UTC TUESDAY, APRIL 13, 2021  
   
AVIATION
 
(FOR THE 12Z TAFS THROUGH 12Z WEDNESDAY MORNING)  
ISSUED AT 537 AM MDT TUE APR 13 2021  
IN GENERAL, VFR PREVAILS W/ LOW CEILINGS AROUND 3500-5000 FEET AGL  
FOR MOST SOUTHEAST WYOMING TERMINALS. OCCASIONAL MVFR CEILINGS ARE  
POSSIBLE THIS MORNING, ESPECIALLY AT KLAR. SNOW WILL INCREASE LATE  
TONIGHT WITH IFR CONDITIONS DEVELOPING FOR KLAR AND KCYS AFTER 06Z  
AND CONTINUING THROUGH THE END OF THE TAF PERIOD. KRWL SHOULD ALSO  
SEE WORSENING CONDITIONS BY EARLY WEDNESDAY.  
 
* * * * * NEBRASKA * * * * *  
 
METAR KIBM 131215Z AUTO 35012KT 10SM OVC060 M03/M09 A3023 RMK AO2  
T10281086  
METAR KIBM 131155Z AUTO 35014KT 10SM OVC060 M02/M09 A3023 RMK AO2  
T10251090 10000 21025  
METAR KIBM 131135Z AUTO 34011G15KT 10SM OVC060 M02/M09 A3023 RMK AO2  
T10211087  
 
KSNY 131136Z 1312/1412 33012KT P6SM BKN150  
FM131900 36010KT P6SM BKN050  
FM140100 03008KT P6SM VCSH OVC050  
METAR KSNY 131153Z AUTO 33016KT 10SM OVC070 M02/M08 A3023 RMK AO2 SLP249  
T10171083 10000 21017 51002 $  
METAR KSNY 131053Z AUTO 32012KT 10SM OVC075 M01/M09 A3023 RMK AO2 SLP249  
T10111089 $  
METAR KSNY 130953Z AUTO 34010KT 10SM OVC070 M01/M08 A3022 RMK AO2 SLP247  
T10111083  
 
METAR KOGA 131215Z AUTO 30006KT 10SM OVC090 01/M07 A3027 RMK AO2  
T00091072  
METAR KOGA 131155Z AUTO 29006KT 10SM OVC090 01/M07 A3027 RMK AO2  
T00101073 10023 20010  
METAR KOGA 131135Z AUTO 30007KT 10SM OVC100 01/M07 A3026 RMK AO2  
T00101075  
 
METAR KIML 131153Z AUTO 33010KT 10SM OVC080 02/M08 A3026 RMK AO2 SLP257  
T00171083 10039 20017 53006  
METAR KIML 131053Z AUTO 34014G22KT 10SM OVC085 02/M08 A3024 RMK AO2  
SLP252 T00171083  
METAR KIML 130953Z AUTO 34014G21KT 10SM OVC090 02/M09 A3024 RMK AO2  
SLP249 T00221089  
 
KMCK 131144Z 1312/1412 VRB05KT P6SM OVC100  
FM132300 32009KT P6SM SCT120  
FM140700 03007KT P6SM SCT120  
METAR KMCK 131153Z AUTO 29004KT 10SM OVC100 03/M07 A3027 RMK AO2 SLP257  
T00281072 10044 20022 53008  
METAR KMCK 131053Z AUTO 00000KT 10SM OVC100 03/M07 A3026 RMK AO2 SLP251  
T00281067  
METAR KMCK 130953Z AUTO 27004KT 10SM OVC100 03/M07 A3025 RMK AO2 SLP248  
T00281072  
 
NORTH PLATTE (KLNX) 04/13/21 12:16 UTC  
RADAR VAD WINDS HEIGHT DIR/SPD(KT)  
4100 FT MSL...291/001  
3400 FT MSL...274/011  
 
NORTH PLATTE AVIATION DISCUSSION  
ISSUED AT 1121 UTC TUESDAY, APRIL 13, 2021  
   
AVIATION
 
(FOR THE 12Z TAFS THROUGH 12Z WEDNESDAY MORNING)  
ISSUED AT 621 AM CDT TUE APR 13 2021  
WIND WILL BE THE MAIN AVIATION WEATHER CONCERN AGAIN TODAY. THE  
HIGHEST SPEEDS WILL AFFECT THE NORTHERN TERMINALS (KVTN) WHERE  
NORTHWEST WINDS GUST TO NEAR 30 KTS LATE THIS MORNING AND MUCH OF  
THE AFTERNOON. FARTHER SOUTH (KLBF), MOST GUSTS SHOULD REMAIN  
UNDER 20 KTS. MEANWHILE, SOME AREAS OF LOW/MID CLOUDS ACROSS THE  
FAR NORTH WILL BREAK UP THIS MORNING, BUT THICKER MID/HIGH CLOUDS  
IN THE SOUTHWEST MAY STICK AROUND. OVERALL, VFR IS ANTICIPATED  
THROUGH WEDNESDAY MORNING. PERHAPS THE EXCEPTION WOULD BE FAR  
SOUTHWEST (KOGA TO KIML) AROUND DAYBREAK TOMORROW WHEN A STRATUS  
DECK BUILDS IN WITH SOME LIGHT RAIN OR SNOW SHOWERS.  
 
* * * * * KANSAS * * * * *  
 
KGLD 131144Z 1312/1412 36007KT P6SM OVC080  
FM131900 18007KT P6SM BKN100  
FM140000 13006KT P6SM BKN120  
FM140900 10005KT P6SM BKN045  
METAR KGLD 131153Z AUTO 01007KT 10SM OVC080 02/M08 A3025 RMK AO2 SLP244  
7//// T00171083 10022 20000 53009  
METAR KGLD 131053Z AUTO 36007KT 10SM OVC080 02/M08 A3024 RMK AO2 SLP239  
T00171078  
METAR KGLD 130953Z AUTO 04003KT 10SM OVC085 02/M08 A3023 RMK AO2 SLP238  
T00171083  
 
KGCK 131120Z 1312/1412 02017KT P6SM SKC  
FM140600 11007KT P6SM BKN100  
FM141100 04007KT P6SM BKN070  
METAR KGCK 131154Z AUTO 06010KT 10SM CLR 02/M06 A3024 RMK AO2 SLP241  
T00171061 10044 20011 53016  
METAR KGCK 131054Z AUTO 04010KT 10SM CLR 02/M07 A3022 RMK AO2 SLP235  
T00171072  
METAR KGCK 130954Z AUTO 02017KT 10SM CLR 02/M08 A3020 RMK AO2 SLP227  
T00221083  
 
METAR KLBL 131156Z AUTO 02012KT 10SM CLR 03/M07 A3021 RMK AO2 SLP232  
T00281067 10028 21022 53003  
METAR KLBL 131056Z AUTO 36005KT 10SM CLR 00/M05 A3020 RMK AO2 SLP231  
T00001050 FZRANO  
METAR KLBL 130956Z AUTO 35005KT 10SM CLR M01/M04 A3021 RMK AO2 SLP233  
T10061044 FZRANO  
 
METAR KEHA 131215Z AUTO 36007KT 10SM SCT085 M01/M08 A3025 RMK AO2  
T10101081  
METAR KEHA 131155Z AUTO 35006KT 10SM CLR M01/M08 A3024 RMK AO2 T10141081  
10047 21015  
METAR KEHA 131135Z AUTO 36007KT 10SM SCT085 M01/M08 A3024 RMK AO2  
T10071080  
 
GOODLAND (KGLD) 04/13/21 12:16 UTC  
RADAR VAD WINDS HEIGHT DIR/SPD(KT)  
4600 FT MSL...128/005  
 
DODGE CITY (KDDC) 04/13/21 12:14 UTC  
RADAR VAD WINDS HEIGHT DIR/SPD(KT)  
22000 FT MSL...263/044  
20000 FT MSL...264/046  
19000 FT MSL...264/044  
18000 FT MSL...260/042  
17000 FT MSL...256/038  
16000 FT MSL...257/038  
15000 FT MSL...252/035  
14000 FT MSL...255/035  
13800 FT MSL...256/034  
13000 FT MSL...259/035  
12000 FT MSL...259/033  
11600 FT MSL...295/025  
11000 FT MSL...263/016  
10000 FT MSL...246/021  
9600 FT MSL...263/006  
9000 FT MSL...028/004  
8100 FT MSL...260/005  
5100 FT MSL...297/005  
 
GOODLAND AVIATION DISCUSSION  
ISSUED AT 1150 UTC TUESDAY, APRIL 13, 2021  
   
AVIATION
 
(FOR THE 12Z TAFS THROUGH 12Z WEDNESDAY MORNING)  
ISSUED AT 528 AM MDT TUE APR 13 2021  
VFR CONDITIONS ARE EXPECTED AT MCK AND GLD WITH PARTLY TO MOSTLY  
CLOUDY SKIES THROUGH THE 12Z TAF PERIOD. LIGHT WINDS GRADUALLY  
BECOME MORE EASTERLY THROUGH THE EVENING AND OVERNIGHT HOURS  
TONIGHT WITH LOWER CEILINGS EXPECTED BEYOND THE END OF THE 12Z TAF  
PERIOD. PRECIPITATION CHANCES ARE NOT ZERO, BUT REMAIN LOW ENOUGH  
TO EXCLUDE THEM FROM THE PREVAILING CONDITIONS AT BOTH SITES.  
 
DODGE CITY AVIATION DISCUSSION  
ISSUED AT 1024 UTC TUESDAY, APRIL 13, 2021  
   
AVIATION
 
(FOR THE 12Z TAFS THROUGH 12Z WEDNESDAY MORNING)  
ISSUED AT 523 AM CDT TUE APR 13 2021  
VFR CONDITIONS FOR ALL AIRPORT SITES THROUGH THE TIME PERIOD.  
THERE WILL BE MID LEVEL CLOUDS THROUGH MUCH OF THE AREA DURING THE  
DAY TODAY AND INTO TONIGHT. CLOUD CEILINGS WILL START TO LOWER FOR  
DDC AND GCK TOWARDS 12Z WEDNESDAY MORNING. WINDS SHOULD STAY 12  
KTS OR LESS IN GENERAL.  
 
* * * * * TEXAS/OKLAHOMA * * * * *  
 
KGUY 131135Z 1312/1412 01007KT P6SM SCT100 BKN300  
FM131500 06009KT P6SM SCT100 BKN300  
FM131800 10010KT P6SM SCT090 BKN300  
FM140700 11007KT P6SM OVC035=  
METAR KGUY 131153Z AUTO 36006KT 10SM SCT075 02/M06 A3020 RMK AO2 SLP219  
T00221061 10050 20000 53004  
METAR KGUY 131053Z AUTO 35005KT 10SM FEW080 BKN100 01/M06 A3018 RMK AO2  
SLP212 T00111061  
METAR KGUY 130953Z AUTO 32007KT 10SM CLR 01/M06 A3019 RMK AO2 SLP217  
T00061061  
 
KDHT 131135Z 1312/1412 01007KT P6SM SCT120 BKN300  
FM131400 06013KT P6SM SCT120 BKN300  
FM131800 11012KT P6SM SCT100 BKN300  
FM140700 13013KT P6SM OVC020  
METAR KDHT 131153Z AUTO 33005KT 10SM FEW120 02/M05 A3021 RMK AO2 SLP218  
T00221050 10050 20022 51015  
METAR KDHT 131053Z AUTO 00000KT 10SM FEW120 03/M05 A3019 RMK AO2 SLP209  
T00331050  
METAR KDHT 130953Z AUTO 00000KT 10SM BKN110 05/M06 A3019 RMK AO2 SLP208  
T00501056  
 
AMARILLO (KAMA) 04/13/21 12:09 UTC  
RADAR VAD WINDS HEIGHT DIR/SPD(KT)  
20000 FT MSL...251/043  
19000 FT MSL...253/040  
18000 FT MSL...253/040  
17000 FT MSL...251/038  
16000 FT MSL...250/039  
15000 FT MSL...243/041  
14000 FT MSL...239/040  
13000 FT MSL...230/038  
12000 FT MSL...224/033  
11500 FT MSL...222/030  
11000 FT MSL...224/024  
10000 FT MSL...224/005  
9900 FT MSL...224/005  
9000 FT MSL...091/011  
8100 FT MSL...091/015  
8000 FT MSL...067/018  
7000 FT MSL...075/025  
6400 FT MSL...081/023  
6000 FT MSL...075/025  
5000 FT MSL...063/026  
4600 FT MSL...071/019  
4600 FT MSL...061/016  
4000 FT MSL...061/020  
4000 FT MSL...059/018  
 
AMARILLO AVIATION DISCUSSION  
ISSUED AT 1145 UTC TUESDAY, APRIL 13, 2021  
   
AVIATION
 
 
FOR THE 12Z TAFS, INCREASING AMOUNTS OF MID AND HIGH LEVEL CLOUDS  
ARE EXPECTED TODAY IN ADVANCE OF AN UPPER LEVEL STORM SYSTEM  
ORGANIZING OVER THE GREAT BASIN REGION. MVFR CIGS ARE THEN  
FORECAST TO DEVELOP AT KDHT AND KAMA AFTER 06Z. ISOLATED LIGHT  
RAIN SHOWERS ARE POSSIBLE DURG THIS FCST CYCLE. GIVEN THE EXPECTED  
SPARSE COVERAGE IF ANY LIGHT SHOWERS DO FORM, HAVE DECIDED TO OMIT  
THIS WEATHER ELEMENT FROM THE CURRENT FCST.  
02  
 
* * * * * NEW MEXICO * * * * *  
 
KFMN 131129Z 1312/1412 11010KT P6SM SCT090 BKN120  
FM131700 13010G20KT P6SM BKN100  
FM132100 17010G20KT P6SM VCSH BKN100  
FM140200 10012KT P6SM BKN100  
FM140800 11011KT P6SM FEW250  
METAR KFMN 131153Z 16011KT 10SM BKN120 12/M07 A2986 RMK AO2 SLP063  
T01221072 10122 20067 53001  
METAR KFMN 131053Z AUTO 06006KT 10SM SCT120 11/M10 A2984 RMK AO2 SLP058  
T01061100  
METAR KFMN 130953Z AUTO 08006KT 10SM BKN120 10/M11 A2984 RMK AO2 SLP058  
T01001111  
 
METAR KSKX 131156Z AUTO 14013KT 10SM FEW080 BKN100 03/M07 A3009 RMK AO2  
SLP154 T00281072 10067 20028 53004  
METAR KSKX 131056Z AUTO 14013KT 10SM BKN110 03/M07 A3008 RMK AO2 SLP152  
T00331072  
METAR KSKX 130956Z AUTO 14013KT 10SM CLR 03/M07 A3007 RMK AO2 SLP148  
T00331072  
 
KLVS 131129Z 1312/1412 13008KT P6SM SCT090 BKN120  
FM131700 17012G20KT P6SM FEW070 BKN150  
FM132300 18015G23KT P6SM VCSH BKN060  
FM140400 16011KT P6SM SCT035 BKN070  
FM140800 15008KT P6SM BKN020  
METAR KLVS 131153Z AUTO 05005KT 10SM FEW100 M02/M08 A3020 RMK AO2 SLP180  
T10171078 10017 21017 53009  
METAR KLVS 131053Z AUTO 00000KT 10SM SCT095 BKN120 M01/M08 A3018 RMK AO2  
SLP173 T10111078 $  
 
METAR KRTN 131153Z AUTO 32006KT 10SM CLR M04/M10 A3019 RMK AO2 SLP208  
T10441100 10011 21044 53007  
METAR KRTN 131053Z AUTO 01006KT 10SM CLR M03/M09 A3017 RMK AO2 SLP196  
T10281094  
METAR KRTN 130953Z AUTO 36008KT 10SM CLR M03/M09 A3016 RMK AO2 SLP193  
T10281089  
 
METAR KCAO 131155Z AUTO 00000KT 10SM OVC120 03/M07 A3019 RMK AO2 SLP212  
T00281067 10028 20006 53006  
METAR KCAO 131055Z AUTO 00000KT 10SM BKN110 03/M07 A3018 RMK AO2 SLP207  
T00281067  
METAR KCAO 130955Z AUTO 01004KT 10SM CLR 02/M07 A3017 RMK AO2 SLP206  
T00221072  
 
ALBUQUERQUE (KABX) 04/13/21 12:14 UTC  
RADAR VAD WINDS HEIGHT DIR/SPD(KT)  
28000 FT MSL...249/044  
26000 FT MSL...232/042  
25000 FT MSL...251/040  
24000 FT MSL...245/041  
15000 FT MSL...322/001  
11000 FT MSL...259/016  
9000 FT MSL...180/007  
8000 FT MSL...104/006  
7000 FT MSL...148/016  
6800 FT MSL...147/015  
6300 FT MSL...111/012  
 
ALBUQUERQUE AVIATION DISCUSSION  
ISSUED AT 1136 UTC TUESDAY, APRIL 13, 2021  
   
AVIATION
 
 
12Z TAF CYCLE  
EXPANSIVE MID TO HIGH CLOUDS OVER NORTHERN NEW MEXICO WILL PERIODICALLY  
REDEVELOP WITH LIGHT SPRINKLES AND FLURRIES POSSIBLE THROUGH THE  
MORNING. CONDITIONS SHOULD REMAIN AT VFR ACROSS MOST OF THE FORECAST  
AREA WITH PERHAPS JUST A BRIEF NORTHERN MOUNTAIN PEAK OBSCURATION  
THROUGH THE MORNING. WINDS WILL ALSO REMAIN A CONCERN IN CENTRAL  
AREAS OF THE STATE WHERE EASTERLY GAP WINDS ARE IMPACTING KSAF AND  
KABQ. AN AVIATION WEATHER WARNING REMAINS IN EFFECT AT KABQ WITH GUSTS  
OF 35 TO 40 KT EXPECTED THROUGH 13/1600UTC. AS WEAKLY DISTURBED WEST  
SOUTHWEST FLOW ALOFT MOVES IN THIS AFTERNOON AND THE ATMOSPHERE  
DESTABILIZES, ISOLATED TO SCATTERED SHOWERS AND THUNDERSTORMS WILL  
DEVELOP OVER NORTH CENTRAL TO NORTHWESTERN NEW MEXICO. SOUTHEASTERLY  
FLOW WILL THEN BRING IN SOME MOISTURE FOR LOW STRATUS CLOUDS IN  
SOUTHEASTERN TO EAST CENTRAL PARTS OF THE STATE TONIGHT. EXPECT MVFR  
TO IFR CEILINGS TO DEVELOP OVER MUCH OF EASTERN NEW MEXICO AFTER  
14/0600UTC.  
52  
 
* * * * * WINDS AND TEMPERATURES ALOFT FORECASTS * * * * *  
 
DATA BASED ON 130000Z  
VALID 130600Z FOR USE 0500-0900Z. TEMPS NEG ABV 24000  
FT 3000 6000 9000 12000 18000 24000 30000 34000 39000  
SLC 9900 1207-02 2311-08 2633-22 2547-34 256847 266953 275252  
BCE 2516-01 2428-18 2539-30 265344 266355 275754  
LND 0314-12 9900-17 2730-24 2645-36 266649 266152 264651  
RKS 0733 2705-11 2638-22 2649-34 266747 266854 275154  
GJT 9900+04 2420-02 2446-19 2550-31 265846 266155 275654  
FMN 1712+10 2220+02 2328-18 2538-29 265444 276553 266357  
ABQ 1916+09 2417+02 2426-16 2539-28 275443 266452 266256  
MBW 1012 2308-14 2744-23 2660-34 267747 267754 275252  
DEN 1207-07 2023-12 2653-20 2662-32 266846 277355 275853  
PUB 1211-04 2114-11 2647-18 2652-30 265345 265554 264954  
ALS 2119-01 2439-18 2646-31 275945 276554 276053  
TCC 0719 2309+02 2428+02 2534-16 2640-29 265143 276153 266357  
BFF 3422 3123-11 2931-14 2754-23 2766-34 278347 277853 264951  
GLD 0217 2906-06 2635-11 2652-20 2659-31 266345 256955 266256  
GCK 0316+03 0212-06 2728-03 2640-18 2645-29 264944 265654 266155  
GAG 0416+03 9900+00 2625+00 2630-17 2643-29 274844 265053 265954  
AMA 0417 2815+05 2730+01 2733-16 2744-29 275344 275953 266155  
---------------------------------------------------------------------  
 
DATA BASED ON 130000Z  
VALID 131200Z FOR USE 0900-1800Z. TEMPS NEG ABV 24000  
FT 3000 6000 9000 12000 18000 24000 30000 34000 39000  
SLC 9900 9900-02 2516-07 2632-23 2558-34 256848 256453 264850  
BCE 2426-02 2433-19 2639-30 254747 254855 265253  
LND 0212-14 9900-16 2631-24 2552-37 256648 266252 274351  
RKS 0733 1605-11 2633-23 2554-35 257148 256954 274850  
GJT 9900+02 2519-03 2442-20 2554-31 256547 256556 265653  
FMN 2319+06 2518-01 2331-18 2545-29 255746 256355 266554  
ABQ 1923+03 2320+00 2338-16 2543-28 255644 266253 256855  
MBW 1209 2507-12 2639-22 2658-34 268148 267554 274750  
DEN 1716-09 2229-11 2640-19 2556-32 267147 267755 265452  
PUB 1620-06 2224-10 2546-18 2653-30 266144 266155 266055  
ALS 2328-03 2345-18 2649-30 266345 266555 266555  
TCC 0819 9900-02 2531+01 2546-16 2541-28 265343 265953 266856  
BFF 3320 2820-09 2719-14 2749-22 2668-34 268548 277754 274351  
GLD 0215 2210-07 2729-08 2653-19 2658-32 266946 267155 266455  
GCK 0715+01 1605-05 2624-04 2643-18 2650-30 266546 277754 267256  
GAG 0619+03 2618+02 2527-03 2646-16 2648-29 275345 277053 267255  
AMA 0721 9900+02 2433+01 2541-17 2643-29 275843 276353 266955  
---------------------------------------------------------------------  
 
DATA BASED ON 130000Z  
VALID 140000Z FOR USE 1800-0500Z. TEMPS NEG ABV 24000  
FT 3000 6000 9000 12000 18000 24000 30000 34000 39000  
SLC 0908 1611+00 2217-05 2243-22 2359-32 246349 245953 253448  
BCE 2229-02 2433-17 2536-30 265446 266053 255254  
LND 0411-10 1111-14 2534-22 2461-34 247150 255453 243051  
RKS 0732 2313-08 2433-20 2454-33 246649 246455 254151  
GJT 1709+05 2018-03 2336-17 2442-30 254447 255255 255355  
FMN 1914+08 2019-01 2333-16 2539-30 254945 265153 265354  
ABQ 1823+09 2026+01 2434-16 2658-28 267144 267252 255354  
MBW 1015 2611-09 2434-20 2557-33 256649 256855 254952  
DEN 0808-04 1711-09 2523-18 2539-30 255348 255955 255554  
PUB 1315+00 1926-06 2639-17 2630-29 255046 255255 255454  
ALS 2018+00 2536-17 2637-29 255046 255054 255654  
TCC 1316 1911+02 2430+01 2535-15 2553-27 266244 266553 256556  
BFF 9900 3205-08 2816-09 2839-21 2562-32 266949 266955 254953  
GLD 1407 1916-06 2817-05 2633-17 2637-30 256346 256256 265954  
GCK 1312+03 2014-03 2629-02 2543-17 2556-29 256245 246855 256954  
GAG 1116+03 2316+03 2531+00 2442-16 2551-27 256344 256854 257856  
AMA 1216 2222+05 2329+01 2435-15 2549-27 246144 256553 256856  
---------------------------------------------------------------------  
 
THIS PRODUCT IS UPDATED AUTOMATICALLY AT APPROXIMATELY 10, 30 AND 50  
MINUTES AFTER EACH HOUR, 24 HOURS PER DAY, 7 DAYS PER WEEK. IT MAY  
BECOME UNAVAILABLE AT TIMES DUE TO SYSTEM OUTAGES WITHOUT PRIOR NOTICE.  
USERS ARE ADVISED TO CHECK THE TIME AT THE TOP OF THE PRODUCT TO ENSURE  
THAT IT IS CURRENT. FURTHERMORE, CONTENT AND FORMAT OF THE PRODUCT ARE  
SUBJECT TO CHANGE WITHOUT PRIOR NOTICE.  
 
COMMENTS AND SUGGESTIONS ARE WELCOME AND SHOULD BE DIRECTED TO ONE OF  
THE ADDRESSES OR PHONE NUMBERS SHOWN AT THE BOTTOM OF THIS PAGE. IN  
ORDER TO EXPEDITE A RESPONSE TO COMMENTS OR SUGGESTIONS, BE SURE TO  
MENTION YOUR INTEREST IN THE HOT-AIR BALLOON FORECAST.  
 
CLICK HERE TO GO TO PREVIOUS BULLETINS.

The Nexlab CO Page Main Text Page